BIENVENIDO A Fly Ecuador Virtual

Fly Ecuador Virtual es una organización creada con el fin de brindar una plataforma que permita a los pilotos virtuales, principalmente ecuatorianos, tener un lugar donde registrar sus horas de vuelo, sus certificados de conocimiento adquiridos, las rutas que han volado y los destinos que han visitado. Así mismo, se busca ayudar a todos los pilotos a expandir su conocimiento sobre el mundo de la aviación real y virtual por medio de publicaciones, foros y cursos en línea.
A diferencia de las aerolíneas virtuales tradicionales, Fly Ecuador Virtual no simula las operaciones de una aerolínea del mundo real en específico. Un miembro de Fly Ecuador Virtual tiene toda la libertad de volar cualquier aeronave que opere en el espacio aéreo ecuatoriano real, en cualquier ruta, sea esta nacional o internacional, IFR o VFR, aeronaves monomotor, multimotor o helicópteros. Todo esto con el objetivo de expandir las operaciones virtuales dentro del espacio aéreo ecuatoriano, creando una comunidad en la que se compartan conocimientos y experiencias que beneficien a todos sus integrantes.
El crecimiento de Fly Ecuador Virtual depende de la participación conjunta de todos sus miembros, por este motivo se incentiva la participación en línea a través de los diferentes medios descritos más adelante en este sitio web.

ESTADÍSTICAS

Pilotos 61
Horas totales: 4445.6
Vuelos totales 1652

ÚLTIMOS VUELOS

IndicativoPilotoOrigenDestinoFechaTiempo de vuelo
ECU024Arturo CarvajalSETNSEQM17-06-20180.48
ECU017Jorge NajeraSEGUSEQM16-06-20180.59
ECU017Jorge NajeraSEQMSEGU12-06-20180.68
ECU017Jorge NajeraSEQMSEGU11-06-20180.60
ECU017Jorge NajeraEHAMESSA10-06-20181.50

NUEVOS PILOTOS

PilotoFecha
ECU079-Vicente Torres13-07-2017
ECU077-Fernando Flores Valarezo06-07-2017
ECU078-Ricardo Guzman05-07-2017
ECU075-FREDDY RIVERA29-06-2017
ECU074-Emilio Mayhua28-06-2017

PRÓXIMOS EVENTOS y METARS

EventoFecha
METAR
SEGU - José Joaquín de Olmedo International Airport, Guayaquil, ECU
Distance from station: N 0mi, 0km
Updated: Thu, 21-Jun-2018 10:00pm PDT
Few Clouds
Few Clouds
 Wind from SSW
Wind: SSW 13 mph , 20 km/h
Temperature: 72°F , 22°C
Dew Point: 66°F , 19°C
Humidity: 83%
Barometer: 29.91 inHg , 1013 hPa
Clouds: Few Clouds
Visibility: 6 miles , 10 km
Cloud details: Few Clouds 3000 ft
2018/06/22 05:00 SEGU 220500Z 21011KT 9999 FEW030 22/19 Q1013 NOSIG RMK A2993
 
SEQM - Aeropuerto Internacional Mariscal Sucre, ECU
Distance from station: NE 120mi, 200km
Updated: Thu, 21-Jun-2018 10:00pm PDT
Few Clouds
Few Clouds
 Wind from SE
Wind: SE 5 mph , 7 km/h
Temperature: 34°F , 1°C
Wind Chill: 29°F , -2°C
Dew Point: 48°F , 9°C
Humidity: 173%
Barometer: 30.33 inHg , 1027 hPa
Clouds: Few Clouds
Visibility: 6 miles , 10 km
Cloud details: Few Clouds 3300 ft
2018/06/22 05:00 SEQM 220500Z 13004KT 9999 FEW033 01/09 Q1027 NOSIG RMK A3035
 
SECU - Mariscal Lamar Airpor, ECU
Distance from station: ENE 80mi, 120km
Updated: Thu, 21-Jun-2018 10:00pm PDT

 Wind from varies
Wind: varies 2 mph , 4 km/h
2018/06/22 05:00 SECU 220500Z AUTO VRB02KT ////NDV BKN039 BKN046 OVC050 11/08 Q1028
 
SELT - Cotopaxi International Airport, ECU
Distance from station: NW 21mi, 34km
Updated: Thu, 21-Jun-2018 10:00pm PDT
Partly Cloudy
Partly Cloudy
 Wind from S
Wind: S 12 mph , 19 km/h
Temperature: 48°F , 9°C
Wind Chill: 43°F , 6°C
Dew Point: 46°F , 8°C
Humidity: 94%
Barometer: 30.47 inHg , 1032 hPa
Clouds: Partly Cloudy
Visibility: 6 miles , 10 km
Cloud details: Partly Cloudy 3000 ft
2018/06/22 05:00 SELT 220500Z 19010KT 9999 SCT030 09/08 Q1032
 
SEMT - Eloy Alfaro International Airport, ECU
Distance from station: SSE 70mi, 100km
Updated: Thu, 21-Jun-2018 10:00pm PDT
Overcast
Overcast
 Wind from SW
Wind: SW 6 mph , 9 km/h
Temperature: 72°F , 22°C
Dew Point: 68°F , 20°C
Humidity: 88%
Barometer: 29.94 inHg , 1014 hPa
Clouds: Overcast
Visibility: 6 miles , 10 km
Cloud details: Overcast 2000 ft
2018/06/22 05:00 SEMT 220500Z 23005KT 9999 OVC020 22/20 Q1014

Metar display script from Saratoga-Weather.org

TWEETS

NOTAMS

NOTAMFecha